createdAt,value
2018-06-04T00:01:33.101Z,10.78
2018-06-04T00:04:00.614Z,10.68
2018-06-04T00:06:28.109Z,10.18
2018-06-04T00:08:57.643Z,10.10
2018-06-04T00:11:25.142Z,10.70
2018-06-04T00:13:52.665Z,10.45
2018-06-04T00:16:20.129Z,10.78
2018-06-04T00:18:47.629Z,10.78
2018-06-04T00:21:15.118Z,10.08
2018-06-04T00:23:42.597Z,10.18
2018-06-04T00:26:10.078Z,10.95
2018-06-04T00:28:37.534Z,11.80
2018-06-04T00:31:05.103Z,10.35
2018-06-04T00:33:32.581Z,10.60
2018-06-04T00:36:00.122Z,10.38
2018-06-04T00:38:27.597Z,10.43
2018-06-04T00:40:55.174Z,10.75
2018-06-04T00:43:22.685Z,11.00
2018-06-04T00:45:50.139Z,11.33
2018-06-04T00:48:17.693Z,11.00
2018-06-04T00:50:45.155Z,11.35
2018-06-04T00:53:12.620Z,10.80
2018-06-04T00:55:45.586Z,11.25
2018-06-04T00:58:13.097Z,10.75
2018-06-04T01:00:41.273Z,10.55
2018-06-04T01:03:08.749Z,11.12
2018-06-04T01:05:36.236Z,10.78
2018-06-04T01:08:03.705Z,10.70
2018-06-04T01:10:31.198Z,10.50
2018-06-04T01:12:58.681Z,10.40
2018-06-04T01:15:26.153Z,11.50
2018-06-04T01:17:53.636Z,11.80
2018-06-04T01:20:21.137Z,9.55
2018-06-04T01:22:48.599Z,11.08
2018-06-04T01:25:16.077Z,11.05
2018-06-04T01:27:43.565Z,11.05
2018-06-04T01:30:11.034Z,10.68
2018-06-04T01:32:38.494Z,10.93
2018-06-04T01:35:05.988Z,10.65
2018-06-04T01:37:33.514Z,10.98
2018-06-04T01:40:00.989Z,10.00
2018-06-04T01:42:28.474Z,10.68
2018-06-04T01:44:55.957Z,11.63
2018-06-04T01:47:23.458Z,11.43
2018-06-04T01:49:50.902Z,11.00
2018-06-04T01:52:18.373Z,10.93
2018-06-04T01:54:45.842Z,11.25
2018-06-04T01:57:13.330Z,10.75
2018-06-04T01:59:40.818Z,11.95
2018-06-04T02:02:08.305Z,11.08
2018-06-04T02:04:35.761Z,11.78
2018-06-04T02:07:03.293Z,11.78
2018-06-04T02:09:30.782Z,11.08
2018-06-04T02:11:58.333Z,10.85
2018-06-04T02:14:25.800Z,11.00
2018-06-04T02:16:53.286Z,11.00
2018-06-04T02:19:20.750Z,12.50
2018-06-04T02:21:48.272Z,10.93
2018-06-04T02:24:16.166Z,12.05
2018-06-04T02:26:43.999Z,10.70
2018-06-04T02:29:11.859Z,11.08
2018-06-04T02:31:39.636Z,11.63
2018-06-04T02:34:07.498Z,11.50
2018-06-04T02:36:35.040Z,11.63
2018-06-04T02:39:02.937Z,11.85
2018-06-04T02:41:30.394Z,11.97
2018-06-04T02:43:57.856Z,11.73
2018-06-04T02:46:25.346Z,11.18
2018-06-04T02:48:52.814Z,11.68
2018-06-04T02:51:20.378Z,11.40
2018-06-04T02:53:47.874Z,10.25
2018-06-04T02:56:15.349Z,13.22
2018-06-04T02:58:42.850Z,11.95
2018-06-04T03:01:10.325Z,11.83
2018-06-04T03:03:37.799Z,10.80
2018-06-04T03:06:05.331Z,12.00
2018-06-04T03:08:32.801Z,11.22
2018-06-04T03:11:00.268Z,11.83
2018-06-04T03:13:27.770Z,12.37
2018-06-04T03:15:55.249Z,11.93
2018-06-04T03:18:22.733Z,12.25
2018-06-04T03:20:50.241Z,11.28
2018-06-04T03:23:17.690Z,12.40
2018-06-04T03:25:45.181Z,11.85
2018-06-04T03:28:12.707Z,11.90
2018-06-04T03:30:40.182Z,12.60
2018-06-04T03:33:07.693Z,11.70
2018-06-04T03:35:35.201Z,12.68
2018-06-04T03:38:02.696Z,12.35
2018-06-04T03:40:30.163Z,11.73
2018-06-04T03:42:57.633Z,11.53
2018-06-04T03:45:25.173Z,11.88
2018-06-04T03:47:52.621Z,12.30
2018-06-04T03:50:20.096Z,12.20
2018-06-04T03:52:47.582Z,12.47
2018-06-04T03:55:15.069Z,12.47
2018-06-04T03:57:42.543Z,13.00
2018-06-04T04:00:10.047Z,11.90
2018-06-04T04:02:37.531Z,12.82
2018-06-04T04:05:05.041Z,13.03
2018-06-04T04:07:33.361Z,12.75
2018-06-04T04:10:00.833Z,12.70
2018-06-04T04:12:28.317Z,13.22
2018-06-04T04:14:55.872Z,12.60
2018-06-04T04:17:23.362Z,11.68
2018-06-04T04:19:50.934Z,12.30
2018-06-04T04:22:18.401Z,12.53
2018-06-04T04:24:45.888Z,12.88
2018-06-04T04:27:13.362Z,11.95
2018-06-04T04:29:40.864Z,12.13
2018-06-04T04:32:08.427Z,11.97
2018-06-04T04:34:36.005Z,11.93
2018-06-04T04:37:03.536Z,10.50
2018-06-04T04:39:31.033Z,11.97
2018-06-04T04:41:58.497Z,11.80
2018-06-04T04:44:25.969Z,11.73
2018-06-04T04:46:53.454Z,12.00
2018-06-04T04:49:20.925Z,11.70
2018-06-04T04:51:48.410Z,13.13
2018-06-04T04:54:15.890Z,12.93
2018-06-04T04:56:43.369Z,12.53
2018-06-04T04:59:10.849Z,13.50
2018-06-04T05:01:38.395Z,13.50
2018-06-04T05:04:05.873Z,13.58
2018-06-04T05:06:33.393Z,11.35
2018-06-04T05:09:00.846Z,13.75
2018-06-04T05:11:28.349Z,13.48
2018-06-04T05:13:55.840Z,13.05
2018-06-04T05:16:23.369Z,14.33
2018-06-04T05:18:51.037Z,12.13
2018-06-04T05:21:18.481Z,11.38
2018-06-04T05:23:46.029Z,12.65
2018-06-04T05:26:13.671Z,12.55
2018-06-04T05:28:41.361Z,11.78
2018-06-04T05:31:09.030Z,11.90
2018-06-04T05:33:36.778Z,12.80
2018-06-04T05:36:04.422Z,12.80
2018-06-04T05:38:32.039Z,12.37
2018-06-04T05:40:59.554Z,11.95
2018-06-04T05:43:27.091Z,13.03
2018-06-04T05:45:54.575Z,12.37
2018-06-04T05:48:22.109Z,11.55
2018-06-04T05:50:49.573Z,12.45
2018-06-04T05:53:17.074Z,12.50
2018-06-04T05:55:44.585Z,12.93
2018-06-04T05:58:12.069Z,12.23
2018-06-04T06:00:39.932Z,11.40
2018-06-04T06:03:07.746Z,11.25
2018-06-04T06:05:35.368Z,12.07
2018-06-04T06:08:02.930Z,12.18
2018-06-04T06:10:30.490Z,11.55
2018-06-04T06:12:58.397Z,11.12
2018-06-04T06:15:26.025Z,12.05
2018-06-04T06:17:53.569Z,11.78
2018-06-04T06:20:21.107Z,10.20
2018-06-04T06:22:48.902Z,10.63
2018-06-04T06:25:16.551Z,10.50
2018-06-04T06:27:44.052Z,10.82
2018-06-04T06:30:11.554Z,10.20
2018-06-04T06:32:39.029Z,10.08
2018-06-04T06:35:06.533Z,10.93
2018-06-04T06:37:34.042Z,9.65
2018-06-04T06:40:01.493Z,10.63
2018-06-04T06:42:28.982Z,9.88
2018-06-04T06:44:56.553Z,11.60
2018-06-04T06:47:24.074Z,11.15
2018-06-04T06:49:51.549Z,10.08
2018-06-04T06:52:19.065Z,9.58
2018-06-04T06:54:46.569Z,9.88
2018-06-04T06:57:14.076Z,10.18
2018-06-04T06:59:41.652Z,10.32
2018-06-04T07:02:10.167Z,10.13
2018-06-04T07:04:37.933Z,9.38
2018-06-04T07:07:05.735Z,9.78
2018-06-04T07:09:33.253Z,8.95
2018-06-04T07:12:00.842Z,10.90
2018-06-04T07:14:28.384Z,9.53
2018-06-04T07:16:55.881Z,9.60
2018-06-04T07:19:23.915Z,9.23
2018-06-04T07:21:51.408Z,9.65
2018-06-04T07:24:18.889Z,9.78
2018-06-04T07:26:46.422Z,8.90
2018-06-04T07:29:13.889Z,8.90
2018-06-04T07:31:41.485Z,9.35
2018-06-04T07:34:08.973Z,8.63
2018-06-04T07:36:36.446Z,9.15
2018-06-04T07:39:05.701Z,8.75
2018-06-04T07:41:33.319Z,8.45
2018-06-04T07:44:00.836Z,8.38
2018-06-04T07:46:28.388Z,8.83
2018-06-04T07:48:55.876Z,8.70
2018-06-04T07:51:23.373Z,8.33
2018-06-04T07:53:50.883Z,8.80
2018-06-04T07:56:18.548Z,8.70
2018-06-04T07:58:46.061Z,8.25
2018-06-04T08:01:13.571Z,7.95
2018-06-04T08:03:41.104Z,8.50
2018-06-04T08:06:09.649Z,8.68
2018-06-04T08:08:37.181Z,9.40
2018-06-04T08:11:04.674Z,7.90
2018-06-04T08:13:32.155Z,8.08
2018-06-04T08:15:59.649Z,9.05
2018-06-04T08:18:27.139Z,9.03
2018-06-04T08:20:54.630Z,8.33
2018-06-04T08:23:22.159Z,8.08
2018-06-04T08:25:49.682Z,7.33
2018-06-04T08:28:17.170Z,7.53
2018-06-04T08:30:44.668Z,8.38
2018-06-04T08:33:12.213Z,7.90
2018-06-04T08:35:39.762Z,7.17
2018-06-04T08:38:07.260Z,7.70
2018-06-04T08:40:34.864Z,8.30
2018-06-04T08:43:02.333Z,7.87
2018-06-04T08:45:29.848Z,7.42
2018-06-04T08:47:57.313Z,7.03
2018-06-04T08:50:24.808Z,7.55
2018-06-04T08:52:52.289Z,7.90
2018-06-04T08:55:19.830Z,7.12
2018-06-04T08:57:47.326Z,8.48
2018-06-04T09:00:14.829Z,7.65
2018-06-04T09:02:42.314Z,7.35
2018-06-04T09:05:09.834Z,7.37
2018-06-04T09:07:37.326Z,7.10
2018-06-04T09:10:04.850Z,6.75
2018-06-04T09:12:32.338Z,7.20
2018-06-04T09:14:59.815Z,7.75
2018-06-04T09:17:27.316Z,7.37
2018-06-04T09:19:54.810Z,7.28
2018-06-04T09:22:22.378Z,7.72
2018-06-04T09:24:49.890Z,7.22
2018-06-04T09:27:17.395Z,6.80
2018-06-04T09:29:44.877Z,6.85
2018-06-04T09:32:12.419Z,7.20
2018-06-04T09:34:39.885Z,7.53
2018-06-04T09:37:07.414Z,6.53
2018-06-04T09:39:34.990Z,6.50
2018-06-04T09:42:02.515Z,6.35
2018-06-04T09:44:30.089Z,6.87
2018-06-04T09:46:57.620Z,5.85
2018-06-04T09:49:25.132Z,6.33
2018-06-04T09:51:52.995Z,6.58
2018-06-04T09:54:20.988Z,6.37
2018-06-04T09:56:48.506Z,6.10
2018-06-04T09:59:16.013Z,6.20
2018-06-04T10:01:43.517Z,6.25
2018-06-04T10:04:11.042Z,6.67
2018-06-04T10:06:38.535Z,6.20
2018-06-04T10:09:07.134Z,5.95
2018-06-04T10:11:34.671Z,5.62
2018-06-04T10:14:02.189Z,6.55
2018-06-04T10:16:29.669Z,6.60
2018-06-04T10:18:57.141Z,6.08
2018-06-04T10:21:24.613Z,5.25
2018-06-04T10:23:52.115Z,6.37
2018-06-04T10:26:19.577Z,5.80
2018-06-04T10:28:47.058Z,5.25
2018-06-04T10:31:14.540Z,5.58
2018-06-04T10:33:42.060Z,6.05
2018-06-04T10:36:09.661Z,5.28
2018-06-04T10:38:37.153Z,6.15
2018-06-04T10:41:04.777Z,5.65
2018-06-04T10:43:32.253Z,4.97
2018-06-04T10:45:59.705Z,4.87
2018-06-04T10:48:27.187Z,5.08
2018-06-04T10:50:54.665Z,4.53
2018-06-04T10:53:22.140Z,4.05
2018-06-04T10:55:49.668Z,4.78
2018-06-04T10:58:17.131Z,4.83
2018-06-04T11:00:44.649Z,4.83
2018-06-04T11:03:12.148Z,3.42
2018-06-04T11:05:39.651Z,3.98
2018-06-04T11:08:07.127Z,4.15
2018-06-04T11:10:34.590Z,4.53
2018-06-04T11:13:02.079Z,3.72
2018-06-04T11:15:29.535Z,3.65
2018-06-04T11:17:57.030Z,2.80
2018-06-04T11:20:24.540Z,3.40
2018-06-04T11:22:52.021Z,4.00
2018-06-04T11:25:19.522Z,4.20
2018-06-04T11:27:47.018Z,2.62
2018-06-04T11:30:14.493Z,2.75
2018-06-04T11:32:42.168Z,3.67
2018-06-04T11:35:09.806Z,2.70
2018-06-04T11:37:37.346Z,3.17
2018-06-04T11:40:04.792Z,3.17
2018-06-04T11:42:32.268Z,3.10
2018-06-04T11:44:59.761Z,3.45
2018-06-04T11:47:27.272Z,3.47
2018-06-04T11:49:54.762Z,3.50
2018-06-04T11:52:22.222Z,3.75
2018-06-04T11:54:49.714Z,3.90
2018-06-04T11:57:17.211Z,3.85
2018-06-04T11:59:44.849Z,3.90
2018-06-04T12:02:12.397Z,3.40
2018-06-04T12:04:39.887Z,3.50
2018-06-04T12:07:07.417Z,3.45
2018-06-04T12:09:35.067Z,3.35
2018-06-04T12:12:02.581Z,3.67
2018-06-04T12:14:30.082Z,3.20
2018-06-04T12:16:57.534Z,3.02
2018-06-04T12:19:25.059Z,3.12
2018-06-04T12:21:52.533Z,3.55
2018-06-04T12:24:20.017Z,3.08
2018-06-04T12:26:47.514Z,2.87
2018-06-04T12:29:14.986Z,3.72
2018-06-04T12:31:42.477Z,2.83
2018-06-04T12:34:09.928Z,3.72
2018-06-04T12:36:37.445Z,3.98
2018-06-04T12:39:06.913Z,3.35
2018-06-04T12:41:34.381Z,4.00
2018-06-04T12:44:01.884Z,3.15
2018-06-04T12:46:29.355Z,3.55
2018-06-04T12:48:56.902Z,2.92
2018-06-04T12:51:24.368Z,3.62
2018-06-04T12:53:51.849Z,3.45
2018-06-04T12:56:19.346Z,2.95
2018-06-04T12:58:46.833Z,2.98
2018-06-04T13:01:14.336Z,2.75
2018-06-04T13:03:41.846Z,3.02
2018-06-04T13:06:09.334Z,3.37
2018-06-04T13:08:36.861Z,2.70
2018-06-04T13:11:04.374Z,3.00
2018-06-04T13:13:31.837Z,2.77
2018-06-04T13:15:59.332Z,3.00
2018-06-04T13:18:26.836Z,3.22
2018-06-04T13:20:54.330Z,3.30
2018-06-04T13:23:21.890Z,2.58
2018-06-04T13:25:49.358Z,3.20
2018-06-04T13:28:16.868Z,2.80
2018-06-04T13:30:44.445Z,2.90
2018-06-04T13:33:12.005Z,2.75
2018-06-04T13:35:39.456Z,3.25
2018-06-04T13:38:07.105Z,2.90
2018-06-04T13:40:35.212Z,2.95
2018-06-04T13:43:02.809Z,3.40
2018-06-04T13:45:30.289Z,3.00
2018-06-04T13:47:58.120Z,3.05
2018-06-04T13:50:25.678Z,3.30
2018-06-04T13:52:53.202Z,3.17
2018-06-04T13:55:20.704Z,3.70
2018-06-04T13:57:49.461Z,3.08
2018-06-04T14:00:16.973Z,2.80
2018-06-04T14:02:44.578Z,2.95
2018-06-04T14:05:12.037Z,3.33
2018-06-04T14:07:39.532Z,3.70
2018-06-04T14:10:07.072Z,3.42
2018-06-04T14:12:34.540Z,3.55
2018-06-04T14:15:02.043Z,3.70
2018-06-04T14:17:29.501Z,3.20
2018-06-04T14:19:57.036Z,3.65
2018-06-04T14:22:24.548Z,3.60
2018-06-04T14:24:52.057Z,3.55
2018-06-04T14:27:19.603Z,3.50
2018-06-04T14:29:47.094Z,3.83
2018-06-04T14:32:14.591Z,3.62
2018-06-04T14:34:42.093Z,3.72
2018-06-04T14:37:09.603Z,4.42
2018-06-04T14:39:37.154Z,3.80
2018-06-04T14:42:04.694Z,4.15
2018-06-04T14:44:32.272Z,4.30
2018-06-04T14:46:59.822Z,3.80
2018-06-04T14:49:28.489Z,3.60
2018-06-04T14:51:56.083Z,4.33
2018-06-04T14:54:23.955Z,4.40
2018-06-04T14:56:51.567Z,4.22
2018-06-04T14:59:19.105Z,4.22
2018-06-04T15:01:46.618Z,4.33
2018-06-04T15:04:14.250Z,4.08
2018-06-04T15:06:41.814Z,3.80
2018-06-04T15:09:09.409Z,3.95
2018-06-04T15:11:36.929Z,4.15
2018-06-04T15:14:04.534Z,4.28
2018-06-04T15:16:32.045Z,4.65
2018-06-04T15:18:59.632Z,4.28
2018-06-04T15:21:27.274Z,4.75
2018-06-04T15:23:54.920Z,4.03
2018-06-04T15:26:22.505Z,4.25
2018-06-04T15:28:51.084Z,4.58
2018-06-04T15:31:20.805Z,4.05
2018-06-04T15:33:48.310Z,4.12
2018-06-04T15:36:15.789Z,4.17
2018-06-04T15:38:43.340Z,4.08
2018-06-04T15:41:11.109Z,3.90
2018-06-04T15:43:38.753Z,4.17
2018-06-04T15:46:06.597Z,3.47
2018-06-04T15:48:34.086Z,4.40
2018-06-04T15:51:01.593Z,4.00
2018-06-04T15:53:29.072Z,3.60
2018-06-04T15:55:56.650Z,3.70
2018-06-04T15:58:24.253Z,3.50
2018-06-04T16:00:51.790Z,2.90
2018-06-04T16:03:19.275Z,2.92
2018-06-04T16:05:50.565Z,3.12
2018-06-04T16:08:18.060Z,3.37
2018-06-04T16:10:47.648Z,2.98
2018-06-04T16:13:15.162Z,3.52
2018-06-04T16:15:42.684Z,3.22
2018-06-04T16:18:10.264Z,3.17
2018-06-04T16:20:37.837Z,3.10
2018-06-04T16:23:05.496Z,3.30
2018-06-04T16:25:32.964Z,3.00
2018-06-04T16:28:01.526Z,2.72
2018-06-04T16:30:29.746Z,2.90
2018-06-04T16:32:59.200Z,2.98
2018-06-04T16:35:27.101Z,3.05
2018-06-04T16:37:55.842Z,3.08
2018-06-04T16:40:23.801Z,2.65
2018-06-04T16:42:51.729Z,2.90
2018-06-04T16:45:19.472Z,3.12
2018-06-04T16:47:48.573Z,2.98
2018-06-04T16:50:17.226Z,2.72
2018-06-04T16:52:46.771Z,3.05
2018-06-04T16:55:14.695Z,2.83
2018-06-04T16:57:42.587Z,2.55
2018-06-04T17:00:10.546Z,2.80
2018-06-04T17:02:38.426Z,2.70
2018-06-04T17:05:07.687Z,2.70
2018-06-04T17:07:35.602Z,3.20
2018-06-04T17:10:03.843Z,2.85
2018-06-04T17:12:32.866Z,3.30
2018-06-04T17:15:00.878Z,2.70
2018-06-04T17:17:28.393Z,2.90
2018-06-04T17:19:55.900Z,2.83
2018-06-04T17:22:23.381Z,2.67
2018-06-04T17:24:50.865Z,3.00
2018-06-04T17:27:18.388Z,3.47
2018-06-04T17:29:45.860Z,3.12
2018-06-04T17:32:13.345Z,2.47
2018-06-04T17:34:40.813Z,3.92
2018-06-04T17:37:08.330Z,2.87
2018-06-04T17:39:35.800Z,3.02
2018-06-04T17:42:03.273Z,2.47
2018-06-04T17:44:30.741Z,2.80
2018-06-04T17:46:58.211Z,3.05
2018-06-04T17:49:25.705Z,2.37
2018-06-04T17:51:53.214Z,2.60
2018-06-04T17:54:20.722Z,2.55
2018-06-04T17:56:48.216Z,2.40
2018-06-04T17:59:15.862Z,5.10
2018-06-04T18:01:43.353Z,5.15
2018-06-04T18:04:10.816Z,6.33
2018-06-04T18:06:38.292Z,12.93
2018-06-04T18:09:07.045Z,6.15
2018-06-04T18:11:34.526Z,4.90
2018-06-04T18:14:02.550Z,6.35
2018-06-04T18:16:30.062Z,4.60
2018-06-04T18:18:57.526Z,3.30
2018-06-04T18:21:25.184Z,3.70
2018-06-04T18:23:52.680Z,6.60
2018-06-04T18:26:20.169Z,6.95
2018-06-04T18:28:47.675Z,5.20
2018-06-04T18:31:15.192Z,4.22
2018-06-04T18:33:43.753Z,4.55
2018-06-04T18:36:11.249Z,6.28
2018-06-04T18:38:38.740Z,5.00
2018-06-04T18:41:06.256Z,8.35
2018-06-04T18:43:34.041Z,7.30
2018-06-04T18:46:01.549Z,4.62
2018-06-04T18:48:29.130Z,4.85
2018-06-04T18:50:57.746Z,5.60
2018-06-04T18:53:25.426Z,7.83
2018-06-04T18:55:53.689Z,8.43
2018-06-04T18:58:21.145Z,6.47
2018-06-04T19:00:48.644Z,6.37
2018-06-04T19:03:16.121Z,8.65
2018-06-04T19:05:43.640Z,5.42
2018-06-04T19:08:11.125Z,7.37
2018-06-04T19:10:38.618Z,6.03
2018-06-04T19:13:06.121Z,9.90
2018-06-04T19:15:33.618Z,17.32
2018-06-04T19:18:01.102Z,17.62
2018-06-04T19:20:31.997Z,9.25
2018-06-04T19:22:59.493Z,6.87
2018-06-04T19:25:26.977Z,9.35
2018-06-04T19:27:54.616Z,9.48
2018-06-04T19:30:22.104Z,29.92
2018-06-04T19:32:49.556Z,12.30
2018-06-04T19:35:17.038Z,10.88
2018-06-04T19:37:44.545Z,8.25
2018-06-04T19:40:12.072Z,16.30
2018-06-04T19:42:39.556Z,7.53
2018-06-04T19:45:07.204Z,8.53
2018-06-04T19:47:34.689Z,6.83
2018-06-04T19:50:02.235Z,7.65
2018-06-04T19:52:30.804Z,6.33
2018-06-04T19:54:58.420Z,6.37
2018-06-04T19:57:25.908Z,6.50
2018-06-04T19:59:53.421Z,6.65
2018-06-04T20:02:20.983Z,8.20
2018-06-04T20:04:48.475Z,7.35
2018-06-04T20:07:15.946Z,10.95
2018-06-04T20:09:43.418Z,7.92
2018-06-04T20:12:10.996Z,7.62
2018-06-04T20:14:38.473Z,11.12
2018-06-04T20:17:05.989Z,12.43
2018-06-04T20:19:33.472Z,15.85
2018-06-04T20:22:00.976Z,12.15
2018-06-04T20:24:28.449Z,11.30
2018-06-04T20:26:55.946Z,22.45
2018-06-04T20:29:23.752Z,10.60
2018-06-04T20:31:51.256Z,10.78
2018-06-04T20:34:18.761Z,25.97
2018-06-04T20:36:46.426Z,19.37
2018-06-04T20:39:14.122Z,12.00
2018-06-04T20:41:41.624Z,31.62
2018-06-04T20:44:09.553Z,11.88
2018-06-04T20:46:37.342Z,16.77
2018-06-04T20:49:04.915Z,16.15
2018-06-04T20:51:32.927Z,17.02
2018-06-04T20:54:00.414Z,7.87
2018-06-04T20:56:27.933Z,11.65
2018-06-04T20:58:55.412Z,9.43
2018-06-04T21:01:22.919Z,7.65
2018-06-04T21:03:50.445Z,8.88
2018-06-04T21:06:17.936Z,13.72
2018-06-04T21:08:45.525Z,12.28
2018-06-04T21:11:13.138Z,7.22
2018-06-04T21:13:40.641Z,9.78
2018-06-04T21:16:08.227Z,9.03
2018-06-04T21:18:35.770Z,16.80
2018-06-04T21:21:03.338Z,11.60
2018-06-04T21:23:30.833Z,5.80
2018-06-04T21:25:58.331Z,5.65
2018-06-04T21:28:25.828Z,5.08
2018-06-04T21:30:53.353Z,5.12
2018-06-04T21:33:20.935Z,5.42
2018-06-04T21:35:48.443Z,5.22
2018-06-04T21:38:17.997Z,5.62
2018-06-04T21:40:46.429Z,5.12
2018-06-04T21:43:14.268Z,5.17
2018-06-04T21:45:41.748Z,5.58
2018-06-04T21:48:09.220Z,5.80
2018-06-04T21:50:36.688Z,6.15
2018-06-04T21:53:04.183Z,6.15
2018-06-04T21:55:31.687Z,5.53
2018-06-04T21:57:59.181Z,5.25
2018-06-04T22:00:27.090Z,5.65
2018-06-04T22:02:54.589Z,6.40
2018-06-04T22:05:22.244Z,6.83
2018-06-04T22:07:49.725Z,6.37
2018-06-04T22:10:17.205Z,7.70
2018-06-04T22:12:44.718Z,7.58
2018-06-04T22:15:12.196Z,7.47
2018-06-04T22:17:39.688Z,7.17
2018-06-04T22:20:07.210Z,7.53
2018-06-04T22:22:34.698Z,7.55
2018-06-04T22:25:02.228Z,7.15
2018-06-04T22:27:29.745Z,7.22
2018-06-04T22:29:57.246Z,8.05
2018-06-04T22:32:24.781Z,6.95
2018-06-04T22:34:52.244Z,7.70
2018-06-04T22:37:19.717Z,8.20
2018-06-04T22:39:47.202Z,7.22
2018-06-04T22:42:14.673Z,7.25
2018-06-04T22:44:42.162Z,7.50
2018-06-04T22:47:09.952Z,8.00
2018-06-04T22:49:37.449Z,7.70
2018-06-04T22:52:05.008Z,8.08
2018-06-04T22:54:32.483Z,7.58
2018-06-04T22:56:59.952Z,7.65
2018-06-04T22:59:27.429Z,8.23
2018-06-04T23:01:54.905Z,8.15
2018-06-04T23:04:22.436Z,8.10
2018-06-04T23:06:49.902Z,8.20
2018-06-04T23:09:17.388Z,9.38
2018-06-04T23:11:44.862Z,9.23
2018-06-04T23:14:12.387Z,8.80
2018-06-04T23:16:39.861Z,9.03
2018-06-04T23:19:07.765Z,8.48
2018-06-04T23:21:35.252Z,8.43
2018-06-04T23:24:02.722Z,9.48
2018-06-04T23:26:30.204Z,9.13
2018-06-04T23:28:57.650Z,9.55
2018-06-04T23:31:25.157Z,8.68
2018-06-04T23:33:52.641Z,8.78
2018-06-04T23:36:20.121Z,9.18
2018-06-04T23:38:47.605Z,8.68
2018-06-04T23:41:16.160Z,9.20
2018-06-04T23:43:43.606Z,9.40
2018-06-04T23:46:11.100Z,9.50
2018-06-04T23:48:38.568Z,9.48
2018-06-04T23:51:06.094Z,9.95
2018-06-04T23:53:33.576Z,9.53
2018-06-04T23:56:01.041Z,10.08
2018-06-04T23:58:28.545Z,10.00
